Ammansville, Texas
Current Conditions -  °F | °C
As of 1:15 PM on Friday 24 Oct 2014 (Local Time) from K3T5 Reporting Station
Clear Clear  
Wind Chill: 80°   Ceiling: Unl
Heat Index: 81°   Visibility: 10mi
Dew Point: 60°   Wind: 0mph
Humidity: 50%   Direction: NA
Pressure: 30.14"   Gusts: NA
Location:  29.8569°N, 96.9311°W
Report Text: K3T5 241815Z AUTO 00000KT 10SM CLR 27/15 A3014 RMK AO2 T02660154
Loading
Personal Weather Stations






























Interactive Weather Map New forecast layout! Learn more

10-Day Weather Forecast

Advertisements
Track Severe Weather on mobile